sensor_id;sensor_type;location;lat;lon;timestamp;pressure;altitude;pressure_sealevel;temperature;humidity
7180;BME280;3631;42.152;24.756;2023-05-21T00:01:03;85046.56;;;-144.30;79.64
7180;BME280;3631;42.152;24.756;2023-05-21T00:03:31;85607.16;;;-144.30;80.22
7180;BME280;3631;42.152;24.756;2023-05-21T00:06:00;85259.28;;;-144.30;80.38
7180;BME280;3631;42.152;24.756;2023-05-21T00:08:27;85295.06;;;-144.30;80.18
7180;BME280;3631;42.152;24.756;2023-05-21T00:10:54;85293.06;;;-144.30;79.90
7180;BME280;3631;42.152;24.756;2023-05-21T00:13:21;85247.34;;;-144.30;79.95
7180;BME280;3631;42.152;24.756;2023-05-21T00:15:50;85277.16;;;-144.30;80.60
7180;BME280;3631;42.152;24.756;2023-05-21T00:18:16;85277.16;;;-144.30;80.72
7180;BME280;3631;42.152;24.756;2023-05-21T00:20:43;85275.16;;;-144.30;81.26
7180;BME280;3631;42.152;24.756;2023-05-21T00:23:12;85299.03;;;-144.30;81.33
7180;BME280;3631;42.152;24.756;2023-05-21T00:25:43;85279.16;;;-144.30;81.38
7180;BME280;3631;42.152;24.756;2023-05-21T00:28:11;85285.09;;;-144.30;81.52
7180;BME280;3631;42.152;24.756;2023-05-21T00:30:37;85305.00;;;-144.30;81.81
7180;BME280;3631;42.152;24.756;2023-05-21T00:33:06;85310.94;;;-144.30;82.14
7180;BME280;3631;42.152;24.756;2023-05-21T00:35:34;85285.09;;;-144.30;81.76
7180;BME280;3631;42.152;24.756;2023-05-21T00:38:01;85299.03;;;-144.30;81.77
7180;BME280;3631;42.152;24.756;2023-05-21T00:40:29;85306.97;;;-144.30;82.12
7180;BME280;3631;42.152;24.756;2023-05-21T00:42:56;85273.19;;;-144.30;82.03
7180;BME280;3631;42.152;24.756;2023-05-21T00:45:23;85340.78;;;-144.30;81.96
7180;BME280;3631;42.152;24.756;2023-05-21T00:47:51;85310.94;;;-144.30;82.11
7180;BME280;3631;42.152;24.756;2023-05-21T00:50:21;85310.94;;;-144.30;82.59
7180;BME280;3631;42.152;24.756;2023-05-21T00:52:48;85308.97;;;-144.30;82.78
7180;BME280;3631;42.152;24.756;2023-05-21T00:55:16;85320.91;;;-144.30;82.77
7180;BME280;3631;42.152;24.756;2023-05-21T00:57:43;85297.03;;;-144.30;82.90
7180;BME280;3631;42.152;24.756;2023-05-21T01:00:12;85283.13;;;-144.30;82.11
7180;BME280;3631;42.152;24.756;2023-05-21T01:02:40;85299.03;;;-144.30;82.09
7180;BME280;3631;42.152;24.756;2023-05-21T01:05:09;85334.81;;;-144.30;82.19
7180;BME280;3631;42.152;24.756;2023-05-21T01:07:39;85324.88;;;-144.30;82.43
7180;BME280;3631;42.152;24.756;2023-05-21T01:10:10;85303.00;;;-144.30;82.06
7180;BME280;3631;42.152;24.756;2023-05-21T01:12:38;85308.97;;;-144.30;82.32
7180;BME280;3631;42.152;24.756;2023-05-21T01:15:07;85336.78;;;-144.30;82.05
7180;BME280;3631;42.152;24.756;2023-05-21T01:17:35;85308.97;;;-144.30;81.90
7180;BME280;3631;42.152;24.756;2023-05-21T01:20:04;85305.00;;;-144.30;82.08
7180;BME280;3631;42.152;24.756;2023-05-21T01:22:41;85269.22;;;-144.30;82.39
7180;BME280;3631;42.152;24.756;2023-05-21T01:25:09;85334.81;;;-144.30;82.46
7180;BME280;3631;42.152;24.756;2023-05-21T01:27:36;85340.78;;;-144.30;82.79
7180;BME280;3631;42.152;24.756;2023-05-21T01:30:04;85316.91;;;-144.30;83.06
7180;BME280;3631;42.152;24.756;2023-05-21T01:32:37;85314.94;;;-144.30;83.56
7180;BME280;3631;42.152;24.756;2023-05-21T01:35:09;85310.94;;;-144.30;83.67
7180;BME280;3631;42.152;24.756;2023-05-21T01:37:40;85342.75;;;-144.30;84.05
7180;BME280;3631;42.152;24.756;2023-05-21T01:40:15;85299.03;;;-144.30;84.14
7180;BME280;3631;42.152;24.756;2023-05-21T01:42:44;85348.72;;;-144.30;84.12
7180;BME280;3631;42.152;24.756;2023-05-21T01:45:13;85933.22;;;-144.30;83.98
7180;BME280;3631;42.152;24.756;2023-05-21T01:47:43;85324.88;;;-144.30;83.77
7180;BME280;3631;42.152;24.756;2023-05-21T01:50:10;85358.66;;;-144.30;83.83
7180;BME280;3631;42.152;24.756;2023-05-21T01:52:37;85360.66;;;-144.30;84.11
7180;BME280;3631;42.152;24.756;2023-05-21T01:55:05;85346.72;;;-144.30;84.00
7180;BME280;3631;42.152;24.756;2023-05-21T01:57:34;85358.66;;;-144.30;83.75
7180;BME280;3631;42.152;24.756;2023-05-21T02:00:01;85338.78;;;-144.30;83.42
7180;BME280;3631;42.152;24.756;2023-05-21T02:02:29;85348.72;;;-144.30;83.32
7180;BME280;3631;42.152;24.756;2023-05-21T02:04:56;85310.94;;;-144.30;83.11
7180;BME280;3631;42.152;24.756;2023-05-21T02:07:23;85336.78;;;-144.30;83.49
7180;BME280;3631;42.152;24.756;2023-05-21T02:09:50;85332.81;;;-144.30;83.34
7180;BME280;3631;42.152;24.756;2023-05-21T02:12:17;85350.72;;;-144.30;83.39
7180;BME280;3631;42.152;24.756;2023-05-21T02:14:45;85356.69;;;-144.30;82.93
7180;BME280;3631;42.152;24.756;2023-05-21T02:17:14;85364.63;;;-144.30;82.83
7180;BME280;3631;42.152;24.756;2023-05-21T02:19:41;85340.78;;;-144.30;83.15
7180;BME280;3631;42.152;24.756;2023-05-21T02:22:09;85370.59;;;-144.30;82.93
7180;BME280;3631;42.152;24.756;2023-05-21T02:24:36;85328.84;;;-144.30;82.43
7180;BME280;3631;42.152;24.756;2023-05-21T02:27:03;85360.66;;;-144.30;82.33
7180;BME280;3631;42.152;24.756;2023-05-21T02:29:30;85314.94;;;-144.30;81.78
7180;BME280;3631;42.152;24.756;2023-05-21T02:31:59;85328.84;;;-144.30;81.24
7180;BME280;3631;42.152;24.756;2023-05-21T02:34:25;85344.75;;;-144.30;81.23
7180;BME280;3631;42.152;24.756;2023-05-21T02:36:55;85328.84;;;-144.30;81.26
7180;BME280;3631;42.152;24.756;2023-05-21T02:39:23;85322.88;;;-144.30;81.06
7180;BME280;3631;42.152;24.756;2023-05-21T02:41:50;85316.91;;;-144.30;81.30
7180;BME280;3631;42.152;24.756;2023-05-21T02:44:17;85356.69;;;-144.30;81.65
7180;BME280;3631;42.152;24.756;2023-05-21T02:46:45;85348.72;;;-144.30;81.32
7180;BME280;3631;42.152;24.756;2023-05-21T02:49:13;85352.69;;;-144.30;81.10
7180;BME280;3631;42.152;24.756;2023-05-21T02:51:40;85346.72;;;-144.30;80.99
7180;BME280;3631;42.152;24.756;2023-05-21T02:54:07;85348.72;;;-144.30;80.99
7180;BME280;3631;42.152;24.756;2023-05-21T02:56:34;85364.63;;;-144.30;80.26
7180;BME280;3631;42.152;24.756;2023-05-21T02:59:01;85360.66;;;-144.30;79.71
7180;BME280;3631;42.152;24.756;2023-05-21T03:01:28;85360.66;;;-144.30;79.25
7180;BME280;3631;42.152;24.756;2023-05-21T03:03:54;85356.69;;;-144.30;79.03
7180;BME280;3631;42.152;24.756;2023-05-21T03:06:23;85368.59;;;-144.30;79.37
7180;BME280;3631;42.152;24.756;2023-05-21T03:08:50;85374.56;;;-144.30;79.13
7180;BME280;3631;42.152;24.756;2023-05-21T03:11:17;85308.97;;;-144.30;79.18
7180;BME280;3631;42.152;24.756;2023-05-21T03:13:44;85352.69;;;-144.30;79.37
7180;BME280;3631;42.152;24.756;2023-05-21T03:16:11;85372.56;;;-144.30;79.49
7180;BME280;3631;42.152;24.756;2023-05-21T03:18:38;85368.59;;;-144.30;79.84
7180;BME280;3631;42.152;24.756;2023-05-21T03:21:05;85354.69;;;-144.30;79.41
7180;BME280;3631;42.152;24.756;2023-05-21T03:23:33;85344.75;;;-144.30;79.15
7180;BME280;3631;42.152;24.756;2023-05-21T03:26:00;85346.72;;;-144.30;79.01
7180;BME280;3631;42.152;24.756;2023-05-21T03:28:27;85338.78;;;-144.30;78.97
7180;BME280;3631;42.152;24.756;2023-05-21T03:30:54;85350.72;;;-144.30;78.86
7180;BME280;3631;42.152;24.756;2023-05-21T03:33:21;85324.88;;;-144.30;78.97
7180;BME280;3631;42.152;24.756;2023-05-21T03:35:50;85295.06;;;-144.30;79.15
7180;BME280;3631;42.152;24.756;2023-05-21T03:38:18;85342.75;;;-144.30;79.51
7180;BME280;3631;42.152;24.756;2023-05-21T03:40:47;85358.66;;;-144.30;79.38
7180;BME280;3631;42.152;24.756;2023-05-21T03:43:14;85360.66;;;-144.30;79.57
7180;BME280;3631;42.152;24.756;2023-05-21T03:45:41;85332.81;;;-144.30;79.43
7180;BME280;3631;42.152;24.756;2023-05-21T03:48:08;85308.97;;;-144.30;79.51
7180;BME280;3631;42.152;24.756;2023-05-21T03:50:35;85340.78;;;-144.30;79.64
7180;BME280;3631;42.152;24.756;2023-05-21T03:53:02;85360.66;;;-144.30;79.92
7180;BME280;3631;42.152;24.756;2023-05-21T03:55:29;85748.31;;;-144.30;80.12
7180;BME280;3631;42.152;24.756;2023-05-21T03:57:57;85340.78;;;-144.30;79.63
7180;BME280;3631;42.152;24.756;2023-05-21T04:00:24;85336.78;;;-144.30;79.39
7180;BME280;3631;42.152;24.756;2023-05-21T04:02:51;85305.00;;;-144.30;78.23
7180;BME280;3631;42.152;24.756;2023-05-21T04:05:18;85320.91;;;-144.30;78.33
7180;BME280;3631;42.152;24.756;2023-05-21T04:07:45;85334.81;;;-144.30;78.43
7180;BME280;3631;42.152;24.756;2023-05-21T04:10:13;85340.78;;;-144.30;78.30
7180;BME280;3631;42.152;24.756;2023-05-21T04:12:40;85247.34;;;-144.30;78.49
7180;BME280;3631;42.152;24.756;2023-05-21T04:15:09;85241.38;;;-144.30;78.16
7180;BME280;3631;42.152;24.756;2023-05-21T04:17:36;85271.19;;;-144.30;78.31
7180;BME280;3631;42.152;24.756;2023-05-21T04:20:06;85334.81;;;-144.30;78.35
7180;BME280;3631;42.152;24.756;2023-05-21T04:22:33;85312.94;;;-144.30;78.41
7180;BME280;3631;42.152;24.756;2023-05-21T04:25:00;85297.03;;;-144.30;78.09
7180;BME280;3631;42.152;24.756;2023-05-21T04:27:27;85281.13;;;-144.30;77.68
7180;BME280;3631;42.152;24.756;2023-05-21T04:29:54;85305.00;;;-144.30;77.02
7180;BME280;3631;42.152;24.756;2023-05-21T04:32:23;85239.38;;;-144.30;76.16
7180;BME280;3631;42.152;24.756;2023-05-21T04:34:50;85235.41;;;-144.30;75.02
7180;BME280;3631;42.152;24.756;2023-05-21T04:37:17;85265.22;;;-144.30;74.48
7180;BME280;3631;42.152;24.756;2023-05-21T04:39:44;85245.34;;;-144.30;74.50
7180;BME280;3631;42.152;24.756;2023-05-21T04:42:11;85281.13;;;-144.30;74.60
7180;BME280;3631;42.152;24.756;2023-05-21T04:44:38;85269.22;;;-144.30;74.38
7180;BME280;3631;42.152;24.756;2023-05-21T04:47:05;85277.16;;;-144.30;74.65
7180;BME280;3631;42.152;24.756;2023-05-21T04:49:34;85259.28;;;-144.30;74.56
7180;BME280;3631;42.152;24.756;2023-05-21T04:52:01;85249.34;;;-144.30;74.14
7180;BME280;3631;42.152;24.756;2023-05-21T04:54:28;85221.50;;;-144.30;73.90
7180;BME280;3631;42.152;24.756;2023-05-21T04:56:55;85237.41;;;-144.30;73.97
7180;BME280;3631;42.152;24.756;2023-05-21T04:59:22;85213.53;;;-144.30;74.19
7180;BME280;3631;42.152;24.756;2023-05-21T05:01:49;85149.94;;;-144.30;74.28
7180;BME280;3631;42.152;24.756;2023-05-21T05:04:16;85237.41;;;-144.30;74.41
7180;BME280;3631;42.152;24.756;2023-05-21T05:06:44;85225.47;;;-144.30;74.59
7180;BME280;3631;42.152;24.756;2023-05-21T05:09:11;85249.34;;;-144.30;74.77
7180;BME280;3631;42.152;24.756;2023-05-21T05:11:38;85259.28;;;-144.30;74.91
7180;BME280;3631;42.152;24.756;2023-05-21T05:14:05;85229.44;;;-144.30;74.62
7180;BME280;3631;42.152;24.756;2023-05-21T05:16:32;85241.38;;;-144.30;74.12
7180;BME280;3631;42.152;24.756;2023-05-21T05:19:00;85245.34;;;-144.30;74.18
7180;BME280;3631;42.152;24.756;2023-05-21T05:21:27;85255.28;;;-144.30;74.16
7180;BME280;3631;42.152;24.756;2023-05-21T05:23:55;85241.38;;;-144.30;74.32
7180;BME280;3631;42.152;24.756;2023-05-21T05:26:22;85225.47;;;-144.30;74.14
7180;BME280;3631;42.152;24.756;2023-05-21T05:28:49;85231.44;;;-144.30;73.82
7180;BME280;3631;42.152;24.756;2023-05-21T05:31:16;85171.81;;;-144.30;73.66
7180;BME280;3631;42.152;24.756;2023-05-21T05:33:43;85241.38;;;-144.30;73.54
7180;BME280;3631;42.152;24.756;2023-05-21T05:36:10;85229.44;;;-144.30;73.16
7180;BME280;3631;42.152;24.756;2023-05-21T05:38:37;85251.31;;;-144.30;72.90
7180;BME280;3631;42.152;24.756;2023-05-21T05:41:05;85207.59;;;-144.30;72.81
7180;BME280;3631;42.152;24.756;2023-05-21T05:43:32;85249.34;;;-144.30;72.29
7180;BME280;3631;42.152;24.756;2023-05-21T05:45:59;85231.44;;;-144.30;72.46
7180;BME280;3631;42.152;24.756;2023-05-21T05:48:26;85215.53;;;-144.30;72.30
7180;BME280;3631;42.152;24.756;2023-05-21T05:50:53;85221.50;;;-144.30;72.78
7180;BME280;3631;42.152;24.756;2023-05-21T05:53:21;85207.59;;;-144.30;73.88
7180;BME280;3631;42.152;24.756;2023-05-21T05:55:48;85221.50;;;-144.30;75.20
7180;BME280;3631;42.152;24.756;2023-05-21T05:58:17;85205.59;;;-144.30;75.91
7180;BME280;3631;42.152;24.756;2023-05-21T06:00:44;85181.75;;;-144.30;75.27
7180;BME280;3631;42.152;24.756;2023-05-21T06:03:11;85197.66;;;-144.30;74.83
7180;BME280;3631;42.152;24.756;2023-05-21T06:05:38;85205.59;;;-144.30;73.93
7180;BME280;3631;42.152;24.756;2023-05-21T06:08:05;85171.81;;;-144.30;73.99
7180;BME280;3631;42.152;24.756;2023-05-21T06:10:32;85197.66;;;-144.30;74.09
7180;BME280;3631;42.152;24.756;2023-05-21T06:12:59;85227.47;;;-144.30;75.10
7180;BME280;3631;42.152;24.756;2023-05-21T06:15:27;85279.16;;;-144.30;74.83
7180;BME280;3631;42.152;24.756;2023-05-21T06:17:54;85185.72;;;-144.30;74.81
7180;BME280;3631;42.152;24.756;2023-05-21T06:20:21;85233.44;;;-144.30;75.41
7180;BME280;3631;42.152;24.756;2023-05-21T06:22:48;85187.69;;;-144.30;76.32
7180;BME280;3631;42.152;24.756;2023-05-21T06:25:15;85223.47;;;-144.30;76.38
7180;BME280;3631;42.152;24.756;2023-05-21T06:27:42;85223.47;;;-144.30;76.06
7180;BME280;3631;42.152;24.756;2023-05-21T06:30:09;85185.72;;;-144.30;75.79
7180;BME280;3631;42.152;24.756;2023-05-21T06:32:38;85177.75;;;-144.30;75.35
7180;BME280;3631;42.152;24.756;2023-05-21T06:35:05;85187.69;;;-144.30;75.04
7180;BME280;3631;42.152;24.756;2023-05-21T06:37:32;85193.66;;;-144.30;74.15
7180;BME280;3631;42.152;24.756;2023-05-21T06:39:59;85193.66;;;-144.30;73.34
7180;BME280;3631;42.152;24.756;2023-05-21T06:42:26;85181.75;;;-144.30;73.05
7180;BME280;3631;42.152;24.756;2023-05-21T06:44:53;85165.84;;;-144.30;72.68
7180;BME280;3631;42.152;24.756;2023-05-21T06:47:20;85108.19;;;-144.30;71.86
7180;BME280;3631;42.152;24.756;2023-05-21T06:49:48;85122.09;;;-144.30;71.21
7180;BME280;3631;42.152;24.756;2023-05-21T06:52:15;85147.94;;;-144.30;70.44
7180;BME280;3631;42.152;24.756;2023-05-21T06:54:42;85165.84;;;-144.30;70.10
7180;BME280;3631;42.152;24.756;2023-05-21T06:57:09;85090.31;;;-144.30;69.44
7180;BME280;3631;42.152;24.756;2023-05-21T06:59:36;85122.09;;;-144.30;69.49
7180;BME280;3631;42.152;24.756;2023-05-21T07:02:03;85102.22;;;-144.30;69.05
7180;BME280;3631;42.152;24.756;2023-05-21T07:04:30;85088.31;;;-144.30;68.50
7180;BME280;3631;42.152;24.756;2023-05-21T07:07:01;85044.59;;;-144.30;68.35
7180;BME280;3631;42.152;24.756;2023-05-21T07:09:28;85110.19;;;-144.30;68.23
7180;BME280;3631;42.152;24.756;2023-05-21T07:11:55;85102.22;;;-144.30;68.94
7180;BME280;3631;42.152;24.756;2023-05-21T07:14:24;85018.75;;;-144.30;69.44
7180;BME280;3631;42.152;24.756;2023-05-21T07:16:51;85062.47;;;-144.30;69.20
7180;BME280;3631;42.152;24.756;2023-05-21T07:19:18;85070.44;;;-144.30;67.99
7180;BME280;3631;42.152;24.756;2023-05-21T07:21:45;85072.41;;;-144.30;67.46
7180;BME280;3631;42.152;24.756;2023-05-21T07:24:13;85018.75;;;-144.30;67.62
7180;BME280;3631;42.152;24.756;2023-05-21T07:26:41;84986.94;;;-144.30;67.79
7180;BME280;3631;42.152;24.756;2023-05-21T07:29:08;85012.78;;;-144.30;66.66
7180;BME280;3631;42.152;24.756;2023-05-21T07:31:35;84996.88;;;-144.30;65.52
7180;BME280;3631;42.152;24.756;2023-05-21T07:34:01;85016.75;;;-144.30;64.85
7180;BME280;3631;42.152;24.756;2023-05-21T07:36:28;84990.91;;;-144.30;63.17
7180;BME280;3631;42.152;24.756;2023-05-21T07:38:57;84961.09;;;-144.30;62.54
7180;BME280;3631;42.152;24.756;2023-05-21T07:41:26;84979.00;;;-144.30;60.17
7180;BME280;3631;42.152;24.756;2023-05-21T07:43:53;84899.47;;;-144.30;58.69
7180;BME280;3631;42.152;24.756;2023-05-21T07:46:20;84873.66;;;-144.30;58.24
7180;BME280;3631;42.152;24.756;2023-05-21T07:48:47;84857.75;;;-144.30;57.40
7180;BME280;3631;42.152;24.756;2023-05-21T07:51:14;84798.13;;;-144.30;56.54
7180;BME280;3631;42.152;24.756;2023-05-21T07:53:41;84784.19;;;-144.30;55.30
7180;BME280;3631;42.152;24.756;2023-05-21T07:56:08;84760.34;;;-144.30;53.57
7180;BME280;3631;42.152;24.756;2023-05-21T07:58:36;84716.63;;;-144.30;52.54
7180;BME280;3631;42.152;24.756;2023-05-21T08:01:03;84748.44;;;-144.30;51.51
7180;BME280;3631;42.152;24.756;2023-05-21T08:03:30;84736.50;;;-144.30;51.50
7180;BME280;3631;42.152;24.756;2023-05-21T08:05:58;84736.50;;;-144.30;51.38
7180;BME280;3631;42.152;24.756;2023-05-21T08:08:25;84728.56;;;-144.30;50.80
7180;BME280;3631;42.152;24.756;2023-05-21T08:10:52;84672.91;;;-144.30;50.13
7180;BME280;3631;42.152;24.756;2023-05-21T08:13:19;84688.81;;;-144.30;49.54
7180;BME280;3631;42.152;24.756;2023-05-21T08:15:47;84686.81;;;-144.30;49.00
7180;BME280;3631;42.152;24.756;2023-05-21T08:18:14;84607.31;;;-144.30;48.82
7180;BME280;3631;42.152;24.756;2023-05-21T08:20:42;84613.28;;;-144.30;47.87
7180;BME280;3631;42.152;24.756;2023-05-21T08:23:09;84599.34;;;-144.30;47.33
7180;BME280;3631;42.152;24.756;2023-05-21T08:25:36;84601.34;;;-144.30;47.52
7180;BME280;3631;42.152;24.756;2023-05-21T08:28:03;84537.75;;;-144.30;46.97
7180;BME280;3631;42.152;24.756;2023-05-21T08:30:30;84539.75;;;-144.30;47.28
7180;BME280;3631;42.152;24.756;2023-05-21T08:32:58;84553.66;;;-144.30;46.25
7180;BME280;3631;42.152;24.756;2023-05-21T08:35:28;84527.81;;;-144.30;45.67
7180;BME280;3631;42.152;24.756;2023-05-21T08:37:55;84517.88;;;-144.30;44.15
7180;BME280;3631;42.152;24.756;2023-05-21T08:40:23;84527.81;;;-144.30;42.92
7180;BME280;3631;42.152;24.756;2023-05-21T08:42:50;84490.06;;;-144.30;41.98
7180;BME280;3631;42.152;24.756;2023-05-21T08:45:19;84505.94;;;-144.30;41.57
7180;BME280;3631;42.152;24.756;2023-05-21T08:47:47;84509.94;;;-144.30;41.57
7180;BME280;3631;42.152;24.756;2023-05-21T08:50:21;84521.84;;;-144.30;41.85
7180;BME280;3631;42.152;24.756;2023-05-21T08:52:50;84531.78;;;-144.30;42.00
7180;BME280;3631;42.152;24.756;2023-05-21T08:55:17;84573.53;;;-144.30;42.22
7180;BME280;3631;42.152;24.756;2023-05-21T08:57:44;84553.66;;;-144.30;42.74
7180;BME280;3631;42.152;24.756;2023-05-21T09:00:12;84501.97;;;-144.30;43.70
7180;BME280;3631;42.152;24.756;2023-05-21T09:02:39;84521.84;;;-144.30;42.36
7180;BME280;3631;42.152;24.756;2023-05-21T09:05:08;84505.94;;;-144.30;41.98
7180;BME280;3631;42.152;24.756;2023-05-21T09:07:42;84468.19;;;-144.30;41.57
7180;BME280;3631;42.152;24.756;2023-05-21T09:10:13;84482.09;;;-144.30;40.40
7180;BME280;3631;42.152;24.756;2023-05-21T09:12:40;84412.53;;;-144.30;40.00
7180;BME280;3631;42.152;24.756;2023-05-21T09:15:07;84378.75;;;-144.30;39.15
7180;BME280;3631;42.152;24.756;2023-05-21T09:17:35;84382.72;;;-144.30;38.93
7180;BME280;3631;42.152;24.756;2023-05-21T09:20:09;84394.66;;;-144.30;38.39
7180;BME280;3631;42.152;24.756;2023-05-21T09:22:40;84390.69;;;-144.30;38.23
7180;BME280;3631;42.152;24.756;2023-05-21T09:25:09;84396.66;;;-144.30;38.13
7180;BME280;3631;42.152;24.756;2023-05-21T09:27:36;84430.44;;;-144.30;37.64
7180;BME280;3631;42.152;24.756;2023-05-21T09:30:06;84378.75;;;-144.30;38.07
7180;BME280;3631;42.152;24.756;2023-05-21T09:32:34;84360.88;;;-144.30;38.11
7180;BME280;3631;42.152;24.756;2023-05-21T09:35:08;84400.63;;;-144.30;38.07
7180;BME280;3631;42.152;24.756;2023-05-21T09:37:40;84380.75;;;-144.30;37.58
7180;BME280;3631;42.152;24.756;2023-05-21T09:40:12;84454.28;;;-144.30;38.06
7180;BME280;3631;42.152;24.756;2023-05-21T09:42:40;84438.38;;;-144.30;38.39
7180;BME280;3631;42.152;24.756;2023-05-21T09:45:08;84426.47;;;-144.30;38.59
7180;BME280;3631;42.152;24.756;2023-05-21T09:47:40;84428.44;;;-144.30;38.64
7180;BME280;3631;42.152;24.756;2023-05-21T09:50:09;84394.66;;;-144.30;38.26
7180;BME280;3631;42.152;24.756;2023-05-21T09:52:36;84410.56;;;-144.30;38.13
7180;BME280;3631;42.152;24.756;2023-05-21T09:55:05;84450.31;;;-144.30;37.71
7180;BME280;3631;42.152;24.756;2023-05-21T09:57:39;84440.38;;;-144.30;37.52
7180;BME280;3631;42.152;24.756;2023-05-21T10:00:07;84452.28;;;-144.30;37.70
7180;BME280;3631;42.152;24.756;2023-05-21T10:02:36;84424.47;;;-144.30;38.10
7180;BME280;3631;42.152;24.756;2023-05-21T10:05:07;84535.75;;;-144.30;38.61
7180;BME280;3631;42.152;24.756;2023-05-21T10:07:36;84541.72;;;-144.30;38.12
7180;BME280;3631;42.152;24.756;2023-05-21T10:10:07;84561.59;;;-144.30;38.40
7180;BME280;3631;42.152;24.756;2023-05-21T10:12:35;84474.16;;;-144.30;38.89
7180;BME280;3631;42.152;24.756;2023-05-21T10:15:07;84565.56;;;-144.30;39.80
7180;BME280;3631;42.152;24.756;2023-05-21T10:17:35;84589.41;;;-144.30;41.02
7180;BME280;3631;42.152;24.756;2023-05-21T10:20:04;84557.63;;;-144.30;41.92
7180;BME280;3631;42.152;24.756;2023-05-21T10:22:32;84609.31;;;-144.30;43.02
7180;BME280;3631;42.152;24.756;2023-05-21T10:25:00;84645.06;;;-144.30;42.79
7180;BME280;3631;42.152;24.756;2023-05-21T10:27:30;84601.34;;;-144.30;43.50
7180;BME280;3631;42.152;24.756;2023-05-21T10:29:58;84569.53;;;-144.30;43.05
7180;BME280;3631;42.152;24.756;2023-05-21T10:32:26;84559.63;;;-144.30;42.29
7180;BME280;3631;42.152;24.756;2023-05-21T10:34:53;84567.56;;;-144.30;41.78
7180;BME280;3631;42.152;24.756;2023-05-21T10:37:22;84496.00;;;-144.30;41.96
7180;BME280;3631;42.152;24.756;2023-05-21T10:39:51;84422.47;;;-144.30;41.67
7180;BME280;3631;42.152;24.756;2023-05-21T10:42:23;84414.53;;;-144.30;41.32
7180;BME280;3631;42.152;24.756;2023-05-21T10:45:07;84382.72;;;-144.30;40.72
7180;BME280;3631;42.152;24.756;2023-05-21T10:47:51;84331.06;;;-144.30;39.29
7180;BME280;3631;42.152;24.756;2023-05-21T10:50:41;84291.31;;;-144.30;39.01
7180;BME280;3631;42.152;24.756;2023-05-21T10:53:17;84319.13;;;-144.30;38.47
7180;BME280;3631;42.152;24.756;2023-05-21T10:55:53;84335.03;;;-144.30;38.20
7180;BME280;3631;42.152;24.756;2023-05-21T10:58:58;84342.97;;;-144.30;36.91
7180;BME280;3631;42.152;24.756;2023-05-21T11:01:35;84384.72;;;-144.30;36.06
7180;BME280;3631;42.152;24.756;2023-05-21T11:04:03;84529.81;;;-144.30;36.99
7180;BME280;3631;42.152;24.756;2023-05-21T11:06:31;84309.19;;;-144.30;37.20
7180;BME280;3631;42.152;24.756;2023-05-21T11:09:01;84354.91;;;-144.30;37.10
7180;BME280;3631;42.152;24.756;2023-05-21T11:11:41;84321.13;;;-144.30;37.35
7180;BME280;3631;42.152;24.756;2023-05-21T11:14:27;84333.06;;;-144.30;38.00
7180;BME280;3631;42.152;24.756;2023-05-21T11:16:57;84341.00;;;-144.30;38.19
7180;BME280;3631;42.152;24.756;2023-05-21T11:19:38;84360.88;;;-144.30;38.56
7180;BME280;3631;42.152;24.756;2023-05-21T11:22:06;84368.81;;;-144.30;39.47
7180;BME280;3631;42.152;24.756;2023-05-21T11:24:39;84438.38;;;-144.30;40.26
7180;BME280;3631;42.152;24.756;2023-05-21T11:27:07;84490.06;;;-144.30;40.68
7180;BME280;3631;42.152;24.756;2023-05-21T11:29:41;84446.31;;;-144.30;41.13
7180;BME280;3631;42.152;24.756;2023-05-21T11:32:11;84450.31;;;-144.30;41.12
7180;BME280;3631;42.152;24.756;2023-05-21T11:34:43;84390.69;;;-144.30;41.39
7180;BME280;3631;42.152;24.756;2023-05-21T11:37:25;84426.47;;;-144.30;41.30
7180;BME280;3631;42.152;24.756;2023-05-21T11:39:54;84442.34;;;-144.30;41.02
7180;BME280;3631;42.152;24.756;2023-05-21T11:42:31;84517.88;;;-144.30;40.87
7180;BME280;3631;42.152;24.756;2023-05-21T11:45:00;84539.75;;;-144.30;41.79
7180;BME280;3631;42.152;24.756;2023-05-21T11:47:30;84555.63;;;-144.30;42.37
7180;BME280;3631;42.152;24.756;2023-05-21T11:49:59;84577.50;;;-144.30;42.46
7180;BME280;3631;42.152;24.756;2023-05-21T11:52:28;84523.84;;;-144.30;42.95
7180;BME280;3631;42.152;24.756;2023-05-21T11:54:55;84653.03;;;-144.30;43.56
7180;BME280;3631;42.152;24.756;2023-05-21T11:57:25;84682.84;;;-144.30;44.00
7180;BME280;3631;42.152;24.756;2023-05-21T11:59:55;84647.06;;;-144.30;44.15
7180;BME280;3631;42.152;24.756;2023-05-21T12:02:24;84674.88;;;-144.30;44.06
7180;BME280;3631;42.152;24.756;2023-05-21T12:04:52;84684.81;;;-144.30;44.27
7180;BME280;3631;42.152;24.756;2023-05-21T12:07:26;84647.06;;;-144.30;44.30
7180;BME280;3631;42.152;24.756;2023-05-21T12:09:54;84688.81;;;-144.30;44.52
7180;BME280;3631;42.152;24.756;2023-05-21T12:12:23;84567.56;;;-144.30;44.81
7180;BME280;3631;42.152;24.756;2023-05-21T12:14:51;84692.78;;;-144.30;44.95
7180;BME280;3631;42.152;24.756;2023-05-21T12:17:19;84653.03;;;-144.30;44.91
7180;BME280;3631;42.152;24.756;2023-05-21T12:19:47;84672.91;;;-144.30;44.57
7180;BME280;3631;42.152;24.756;2023-05-21T12:22:16;84690.78;;;-144.30;45.03
7180;BME280;3631;42.152;24.756;2023-05-21T12:24:43;84660.97;;;-144.30;45.07
7180;BME280;3631;42.152;24.756;2023-05-21T12:27:11;84680.84;;;-144.30;45.07
7180;BME280;3631;42.152;24.756;2023-05-21T12:29:41;84688.81;;;-144.30;45.44
7180;BME280;3631;42.152;24.756;2023-05-21T12:32:10;84651.03;;;-144.30;45.21
7180;BME280;3631;42.152;24.756;2023-05-21T12:34:41;84660.97;;;-144.30;44.82
7180;BME280;3631;42.152;24.756;2023-05-21T12:37:10;84647.06;;;-144.30;44.47
7180;BME280;3631;42.152;24.756;2023-05-21T12:39:41;84660.97;;;-144.30;44.62
7180;BME280;3631;42.152;24.756;2023-05-21T12:42:09;84609.31;;;-144.30;44.06
7180;BME280;3631;42.152;24.756;2023-05-21T12:44:37;84561.59;;;-144.30;44.29
7180;BME280;3631;42.152;24.756;2023-05-21T12:47:05;84597.38;;;-144.30;44.11
7180;BME280;3631;42.152;24.756;2023-05-21T12:49:33;84543.72;;;-144.30;43.97
7180;BME280;3631;42.152;24.756;2023-05-21T12:52:02;84561.59;;;-144.30;43.40
7180;BME280;3631;42.152;24.756;2023-05-21T12:54:32;84549.69;;;-144.30;43.22
7180;BME280;3631;42.152;24.756;2023-05-21T12:57:07;84529.81;;;-144.30;42.44